Time;durP1;ratioP1;P1;durP2;ratioP2;P2;SDS_P1;SDS_P2;PMS_P1;PMS_P2;Temp;Humidity;BMP_temperature;BMP_pressure;BME280_temperature;BME280_humidity;BME280_pressure;Samples;Min_cycle;Max_cycle;Signal;HPM_P1;HPM_P2
2023/09/15 00:00:41;;;;;;;0.30;0.30;;;;;;;;;;5036280;28;20521;-83
2023/09/15 00:03:08;;;;;;;0.20;0.20;;;;;;;;;;5020164;28;20041;-83
2023/09/15 00:05:34;;;;;;;0.10;0.10;;;;;;;;;;5016414;28;20038;-83
2023/09/15 00:08:04;;;;;;;0.20;0.20;;;;;;;;;;5007902;28;20038;-84
2023/09/15 00:10:30;;;;;;;0.10;0.10;;;;;;;;;;5027583;28;20133;-82
2023/09/15 00:12:56;;;;;;;0.20;0.20;;;;;;;;;;5025534;28;20045;-84
2023/09/15 00:15:22;;;;;;;0.15;0.15;;;;;;;;;;5025931;28;20053;-85
2023/09/15 00:17:48;;;;;;;0.10;0.10;;;;;;;;;;5020347;28;20052;-84
2023/09/15 00:20:15;;;;;;;0.20;0.20;;;;;;;;;;5019239;28;20041;-84
2023/09/15 00:22:42;;;;;;;0.20;0.20;;;;;;;;;;5003662;28;20038;-84
2023/09/15 00:25:09;;;;;;;0.30;0.30;;;;;;;;;;5007197;28;20072;-85
2023/09/15 00:27:35;;;;;;;0.20;0.20;;;;;;;;;;5019008;28;20073;-84
2023/09/15 00:30:02;;;;;;;0.20;0.20;;;;;;;;;;5019316;28;20042;-84
2023/09/15 00:32:28;;;;;;;0.28;0.28;;;;;;;;;;5020350;28;20501;-83
2023/09/15 00:34:54;;;;;;;0.30;0.30;;;;;;;;;;5019526;28;20052;-83
2023/09/15 00:37:20;;;;;;;0.17;0.17;;;;;;;;;;5037176;28;20046;-82
2023/09/15 00:39:46;;;;;;;0.25;0.25;;;;;;;;;;5019330;28;20088;-83
2023/09/15 00:42:12;;;;;;;0.30;0.30;;;;;;;;;;5036558;28;20037;-84
2023/09/15 00:44:38;;;;;;;0.20;0.20;;;;;;;;;;5019586;28;20041;-84
2023/09/15 00:47:05;;;;;;;0.20;0.20;;;;;;;;;;5034946;28;20033;-84
2023/09/15 00:49:31;;;;;;;0.28;0.28;;;;;;;;;;5019253;28;20083;-83
2023/09/15 00:51:57;;;;;;;0.20;0.20;;;;;;;;;;5035019;28;20077;-83
2023/09/15 00:54:23;;;;;;;0.10;0.10;;;;;;;;;;5018923;28;20048;-84
2023/09/15 00:56:49;;;;;;;0.30;0.30;;;;;;;;;;5019325;28;20096;-84
2023/09/15 00:59:15;;;;;;;0.22;0.22;;;;;;;;;;5019113;28;20048;-83
2023/09/15 01:01:43;;;;;;;0.30;0.30;;;;;;;;;;5018450;28;20045;-83
2023/09/15 01:04:09;;;;;;;0.30;0.30;;;;;;;;;;5019450;28;20045;-84
2023/09/15 01:06:37;;;;;;;0.30;0.30;;;;;;;;;;5017673;28;20034;-83
2023/09/15 01:09:05;;;;;;;0.50;0.50;;;;;;;;;;5017289;28;20052;-84
2023/09/15 01:11:31;;;;;;;0.30;0.30;;;;;;;;;;5019246;28;20041;-84
2023/09/15 01:13:57;;;;;;;0.20;0.20;;;;;;;;;;5035661;28;20065;-83
2023/09/15 01:16:32;;;;;;;0.20;0.20;;;;;;;;;;5019547;28;20121;-84
2023/09/15 01:19:05;;;;;;;0.25;0.25;;;;;;;;;;4999641;28;20046;-84
2023/09/15 01:22:00;;;;;;;0.20;0.20;;;;;;;;;;5014181;28;20046;-84
2023/09/15 01:24:36;;;;;;;0.20;0.20;;;;;;;;;;5018633;28;20033;-84
2023/09/15 01:27:22;;;;;;;0.20;0.20;;;;;;;;;;4999407;28;20505;-84
2023/09/15 01:29:58;;;;;;;0.22;0.22;;;;;;;;;;5006002;28;20061;-84
2023/09/15 01:32:26;;;;;;;0.20;0.20;;;;;;;;;;5019009;28;20441;-83
2023/09/15 01:34:53;;;;;;;0.30;0.30;;;;;;;;;;5018245;28;20110;-83
2023/09/15 01:37:20;;;;;;;0.38;0.38;;;;;;;;;;5018510;28;20047;-83
2023/09/15 01:39:46;;;;;;;0.20;0.20;;;;;;;;;;5017664;28;20081;-83
2023/09/15 01:42:12;;;;;;;0.25;0.25;;;;;;;;;;5017694;28;20045;-83
2023/09/15 01:44:38;;;;;;;0.20;0.20;;;;;;;;;;5033963;28;20037;-83
2023/09/15 01:47:08;;;;;;;0.20;0.20;;;;;;;;;;5014225;28;20368;-83
2023/09/15 01:49:34;;;;;;;0.20;0.20;;;;;;;;;;4997144;28;20046;-83
2023/09/15 01:52:00;;;;;;;0.17;0.17;;;;;;;;;;5016091;28;20079;-83
2023/09/15 01:54:27;;;;;;;0.30;0.30;;;;;;;;;;5017951;28;20064;-84
2023/09/15 01:56:53;;;;;;;0.30;0.30;;;;;;;;;;5018035;28;20045;-83
2023/09/15 01:59:19;;;;;;;0.20;0.20;;;;;;;;;;5034219;28;20037;-84
2023/09/15 02:01:45;;;;;;;0.30;0.30;;;;;;;;;;5017367;28;20091;-83
2023/09/15 02:04:11;;;;;;;0.20;0.20;;;;;;;;;;5017807;28;20041;-84
2023/09/15 02:06:37;;;;;;;0.30;0.30;;;;;;;;;;5017687;28;20090;-84
2023/09/15 02:09:06;;;;;;;0.20;0.20;;;;;;;;;;5033707;28;20041;-84
2023/09/15 02:11:32;;;;;;;0.20;0.20;;;;;;;;;;5016363;28;20042;-83
2023/09/15 02:13:58;;;;;;;0.20;0.20;;;;;;;;;;5016249;28;20519;-84
2023/09/15 02:16:24;;;;;;;0.25;0.25;;;;;;;;;;5017355;28;20049;-84
2023/09/15 02:18:50;;;;;;;0.20;0.20;;;;;;;;;;5017834;28;20048;-84
2023/09/15 02:21:16;;;;;;;0.25;0.25;;;;;;;;;;5017611;28;20045;-84
2023/09/15 02:23:43;;;;;;;0.22;0.22;;;;;;;;;;5017108;28;20045;-83
2023/09/15 02:26:09;;;;;;;0.30;0.30;;;;;;;;;;5017241;28;20079;-83
2023/09/15 02:28:35;;;;;;;0.25;0.25;;;;;;;;;;5015984;28;20029;-83
2023/09/15 02:31:06;;;;;;;0.20;0.20;;;;;;;;;;5016898;28;20052;-83
2023/09/15 02:33:32;;;;;;;0.28;0.28;;;;;;;;;;5031523;28;20077;-84
2023/09/15 02:35:58;;;;;;;0.20;0.20;;;;;;;;;;5028241;28;20076;-83
2023/09/15 02:38:24;;;;;;;0.20;0.20;;;;;;;;;;5024882;28;20394;-82
2023/09/15 02:40:50;;;;;;;0.20;0.20;;;;;;;;;;5014859;28;20042;-84
2023/09/15 02:43:16;;;;;;;0.30;0.30;;;;;;;;;;5013726;28;20095;-84
2023/09/15 02:45:42;;;;;;;0.30;0.30;;;;;;;;;;5005368;28;20087;-84
2023/09/15 02:48:08;;;;;;;0.10;0.10;;;;;;;;;;5033130;28;20120;-83
2023/09/15 02:50:34;;;;;;;0.20;0.20;;;;;;;;;;5013347;28;20034;-84
2023/09/15 02:53:00;;;;;;;0.10;0.10;;;;;;;;;;4997335;28;20041;-84
2023/09/15 02:55:26;;;;;;;0.30;0.30;;;;;;;;;;4997104;28;20038;-83
2023/09/15 02:57:53;;;;;;;0.30;0.30;;;;;;;;;;4996910;28;20049;-84
2023/09/15 03:00:20;;;;;;;0.30;0.30;;;;;;;;;;4998325;28;20080;-83
2023/09/15 03:02:46;;;;;;;0.20;0.20;;;;;;;;;;5015651;28;20084;-83
2023/09/15 03:05:15;;;;;;;0.20;0.20;;;;;;;;;;5017415;28;20048;-83
2023/09/15 03:07:42;;;;;;;0.35;0.35;;;;;;;;;;5036446;28;20049;-83
2023/09/15 03:10:08;;;;;;;0.22;0.22;;;;;;;;;;5019056;28;20048;-83
2023/09/15 03:12:35;;;;;;;0.20;0.20;;;;;;;;;;5019720;28;20183;-84
2023/09/15 03:15:04;;;;;;;0.30;0.30;;;;;;;;;;5036538;28;20095;-84
2023/09/15 03:17:30;;;;;;;0.30;0.30;;;;;;;;;;5019711;28;20087;-83
2023/09/15 03:19:56;;;;;;;0.20;0.20;;;;;;;;;;5024228;28;20470;-84
2023/09/15 03:22:23;;;;;;;0.32;0.32;;;;;;;;;;5018541;28;20041;-84
2023/09/15 03:24:49;;;;;;;0.30;0.30;;;;;;;;;;5020152;28;20449;-83
2023/09/15 03:27:15;;;;;;;0.20;0.20;;;;;;;;;;5019768;28;20465;-84
2023/09/15 03:29:41;;;;;;;0.30;0.30;;;;;;;;;;5019385;28;20156;-82
2023/09/15 03:32:07;;;;;;;0.28;0.28;;;;;;;;;;5016152;28;20045;-82
2023/09/15 03:34:37;;;;;;;0.30;0.30;;;;;;;;;;4999816;28;20470;-83
2023/09/15 03:37:04;;;;;;;0.30;0.30;;;;;;;;;;5016274;28;20093;-83
2023/09/15 03:39:30;;;;;;;0.20;0.20;;;;;;;;;;5016151;28;20133;-83
2023/09/15 03:41:56;;;;;;;0.30;0.30;;;;;;;;;;5014302;28;20037;-83
2023/09/15 03:44:22;;;;;;;0.28;0.28;;;;;;;;;;5019922;28;20402;-82
2023/09/15 03:46:48;;;;;;;0.20;0.20;;;;;;;;;;5019008;28;20052;-83
2023/09/15 03:49:14;;;;;;;0.20;0.20;;;;;;;;;;5019586;28;20083;-83
2023/09/15 03:51:41;;;;;;;0.15;0.15;;;;;;;;;;5019318;28;20041;-83
2023/09/15 03:54:07;;;;;;;0.30;0.30;;;;;;;;;;5036358;28;20045;-83
2023/09/15 03:56:33;;;;;;;0.20;0.20;;;;;;;;;;5020346;28;20064;-84
2023/09/15 03:59:00;;;;;;;0.32;0.32;;;;;;;;;;5025086;28;20049;-84
2023/09/15 04:01:26;;;;;;;0.30;0.30;;;;;;;;;;5032702;28;20053;-84
2023/09/15 04:03:52;;;;;;;0.30;0.30;;;;;;;;;;5017507;28;20033;-83
2023/09/15 04:06:18;;;;;;;0.20;0.20;;;;;;;;;;5019424;28;20087;-83
2023/09/15 04:08:45;;;;;;;0.30;0.30;;;;;;;;;;5035938;28;20037;-83
2023/09/15 04:11:11;;;;;;;0.30;0.30;;;;;;;;;;5016358;28;20491;-83
2023/09/15 04:13:37;;;;;;;0.20;0.20;;;;;;;;;;5015757;28;20242;-82
2023/09/15 04:16:04;;;;;;;0.20;0.20;;;;;;;;;;5018674;28;20070;-83
2023/09/15 04:18:31;;;;;;;0.30;0.30;;;;;;;;;;5019879;28;20072;-83
2023/09/15 04:20:58;;;;;;;0.30;0.30;;;;;;;;;;5018840;28;20045;-83
2023/09/15 04:23:24;;;;;;;0.20;0.20;;;;;;;;;;5019151;28;20395;-83
2023/09/15 04:25:50;;;;;;;0.30;0.30;;;;;;;;;;5019401;28;20046;-83
2023/09/15 04:28:16;;;;;;;0.10;0.10;;;;;;;;;;5020254;28;20448;-83
2023/09/15 04:30:42;;;;;;;0.20;0.20;;;;;;;;;;5036007;28;20049;-84
2023/09/15 04:33:08;;;;;;;0.22;0.22;;;;;;;;;;5036364;28;20049;-83
2023/09/15 04:35:34;;;;;;;0.40;0.40;;;;;;;;;;5019470;28;20049;-83
2023/09/15 04:38:00;;;;;;;0.20;0.20;;;;;;;;;;5019543;28;20045;-83
2023/09/15 04:40:26;;;;;;;0.30;0.30;;;;;;;;;;5017645;28;20046;-83
2023/09/15 04:42:52;;;;;;;0.30;0.30;;;;;;;;;;5017960;28;20030;-83
2023/09/15 04:45:18;;;;;;;0.20;0.20;;;;;;;;;;5035065;28;20038;-83
2023/09/15 04:47:44;;;;;;;0.20;0.20;;;;;;;;;;5035194;28;20521;-83
2023/09/15 04:50:11;;;;;;;0.20;0.20;;;;;;;;;;5018787;28;20048;-83
2023/09/15 04:52:37;;;;;;;0.25;0.25;;;;;;;;;;5028772;28;20042;-83
2023/09/15 04:55:03;;;;;;;0.30;0.30;;;;;;;;;;5013791;28;20521;-83
2023/09/15 04:57:29;;;;;;;0.30;0.30;;;;;;;;;;5013236;28;20072;-83
2023/09/15 04:59:55;;;;;;;0.25;0.25;;;;;;;;;;5018723;28;20383;-83
2023/09/15 05:02:24;;;;;;;0.30;0.30;;;;;;;;;;5017957;28;20124;-83
2023/09/15 05:04:52;;;;;;;0.40;0.40;;;;;;;;;;5018006;28;20132;-84
2023/09/15 05:07:18;;;;;;;0.25;0.25;;;;;;;;;;5018140;28;20038;-83
2023/09/15 05:09:45;;;;;;;0.30;0.30;;;;;;;;;;5018085;28;20076;-84
2023/09/15 05:12:11;;;;;;;0.30;0.30;;;;;;;;;;5019000;28;20529;-83
2023/09/15 05:14:37;;;;;;;0.20;0.20;;;;;;;;;;5017636;28;20033;-83
2023/09/15 05:17:03;;;;;;;0.20;0.20;;;;;;;;;;5017361;28;20275;-83
2023/09/15 05:19:29;;;;;;;0.20;0.20;;;;;;;;;;5019980;28;20042;-83
2023/09/15 05:21:55;;;;;;;0.30;0.30;;;;;;;;;;5005301;28;20106;-83
2023/09/15 05:24:22;;;;;;;0.20;0.20;;;;;;;;;;5016938;28;20046;-83
2023/09/15 05:26:48;;;;;;;0.30;0.30;;;;;;;;;;5017087;28;20037;-84
2023/09/15 05:29:14;;;;;;;0.30;0.30;;;;;;;;;;5017129;28;20109;-83
2023/09/15 05:31:41;;;;;;;0.22;0.22;;;;;;;;;;5018530;28;20473;-84
2023/09/15 05:34:08;;;;;;;0.20;0.20;;;;;;;;;;5033144;28;20088;-84
2023/09/15 05:36:34;;;;;;;0.25;0.25;;;;;;;;;;5016140;28;20044;-83
2023/09/15 05:39:00;;;;;;;0.20;0.20;;;;;;;;;;5018099;28;20143;-84
2023/09/15 05:41:26;;;;;;;0.20;0.20;;;;;;;;;;5017324;28;20506;-83
2023/09/15 05:43:52;;;;;;;0.35;0.35;;;;;;;;;;5017321;28;20430;-83
2023/09/15 05:46:18;;;;;;;0.40;0.40;;;;;;;;;;5017006;28;20040;-84
2023/09/15 05:48:45;;;;;;;0.17;0.17;;;;;;;;;;5017216;28;20327;-83
2023/09/15 05:51:11;;;;;;;0.30;0.30;;;;;;;;;;5033674;28;20053;-84
2023/09/15 05:53:37;;;;;;;0.30;0.30;;;;;;;;;;5032741;28;20068;-83
2023/09/15 05:56:04;;;;;;;0.30;0.30;;;;;;;;;;5033996;28;20096;-83
2023/09/15 05:58:30;;;;;;;0.20;0.20;;;;;;;;;;5030093;28;20088;-83
2023/09/15 06:00:57;;;;;;;0.25;0.25;;;;;;;;;;5032721;28;20095;-83
2023/09/15 06:03:24;;;;;;;0.30;0.30;;;;;;;;;;5016760;28;20141;-83
2023/09/15 06:05:50;;;;;;;0.30;0.30;;;;;;;;;;5017761;28;20037;-85
2023/09/15 06:08:18;;;;;;;0.30;0.30;;;;;;;;;;5017570;28;20045;-83
2023/09/15 06:10:44;;;;;;;0.30;0.30;;;;;;;;;;5016741;28;20045;-83
2023/09/15 06:13:10;;;;;;;0.30;0.30;;;;;;;;;;5013567;28;20064;-84
2023/09/15 06:15:36;;;;;;;0.30;0.30;;;;;;;;;;5031830;28;20041;-83
2023/09/15 06:18:02;;;;;;;0.20;0.20;;;;;;;;;;5017670;28;20064;-84
2023/09/15 06:20:31;;;;;;;0.22;0.22;;;;;;;;;;5016629;28;20126;-83
2023/09/15 06:22:57;;;;;;;0.30;0.30;;;;;;;;;;5017128;28;20113;-84
2023/09/15 06:25:23;;;;;;;0.35;0.35;;;;;;;;;;5013827;28;20441;-84
2023/09/15 06:27:49;;;;;;;0.40;0.40;;;;;;;;;;5012513;28;20095;-84
2023/09/15 06:30:15;;;;;;;0.20;0.20;;;;;;;;;;5017353;28;20447;-84
2023/09/15 06:32:42;;;;;;;0.20;0.20;;;;;;;;;;5027880;28;20491;-83
2023/09/15 06:35:11;;;;;;;0.20;0.20;;;;;;;;;;5002128;28;20034;-83
2023/09/15 06:37:37;;;;;;;0.20;0.20;;;;;;;;;;5029541;28;20042;-83
2023/09/15 06:40:03;;;;;;;0.28;0.28;;;;;;;;;;5031975;28;20053;-83
2023/09/15 06:42:29;;;;;;;0.20;0.20;;;;;;;;;;5020743;28;20061;-84
2023/09/15 06:44:56;;;;;;;0.10;0.10;;;;;;;;;;5037134;28;20041;-84
2023/09/15 06:47:23;;;;;;;0.30;0.30;;;;;;;;;;5033071;28;20033;-86
2023/09/15 06:49:49;;;;;;;0.30;0.30;;;;;;;;;;5020783;28;20045;-86
2023/09/15 06:52:16;;;;;;;0.20;0.20;;;;;;;;;;5016768;28;20037;-86
2023/09/15 06:54:42;;;;;;;0.10;0.10;;;;;;;;;;5013480;28;20037;-86
2023/09/15 06:57:08;;;;;;;0.20;0.20;;;;;;;;;;5025175;28;20038;-87
2023/09/15 06:59:34;;;;;;;0.20;0.20;;;;;;;;;;5028561;28;20041;-86
2023/09/15 07:02:02;;;;;;;0.20;0.20;;;;;;;;;;5021627;28;20505;-87
2023/09/15 07:04:30;;;;;;;0.20;0.20;;;;;;;;;;5031731;28;20458;-87
2023/09/15 07:06:56;;;;;;;0.30;0.30;;;;;;;;;;5013989;28;20029;-86
2023/09/15 07:09:22;;;;;;;0.20;0.20;;;;;;;;;;5014531;28;20038;-85
2023/09/15 07:11:48;;;;;;;0.20;0.20;;;;;;;;;;5020857;28;20090;-89
2023/09/15 07:14:14;;;;;;;0.20;0.20;;;;;;;;;;5019946;28;20037;-87
2023/09/15 07:16:41;;;;;;;0.30;0.30;;;;;;;;;;5022565;28;20069;-88
2023/09/15 07:19:12;;;;;;;0.10;0.10;;;;;;;;;;5020312;28;20034;-88
2023/09/15 07:21:40;;;;;;;0.30;0.30;;;;;;;;;;5020873;28;20033;-88
2023/09/15 07:24:10;;;;;;;0.28;0.28;;;;;;;;;;5020787;28;20045;-87
2023/09/15 07:26:36;;;;;;;0.35;0.35;;;;;;;;;;5020440;28;20129;-88
2023/09/15 07:29:03;;;;;;;0.20;0.20;;;;;;;;;;5020988;28;20041;-89
2023/09/15 07:31:30;;;;;;;0.30;0.30;;;;;;;;;;5032914;28;20046;-88
2023/09/15 07:33:56;;;;;;;0.20;0.20;;;;;;;;;;5028303;28;20068;-86
2023/09/15 07:36:23;;;;;;;0.13;0.13;;;;;;;;;;5019110;28;20037;-88
2023/09/15 07:38:49;;;;;;;0.30;0.30;;;;;;;;;;5034171;28;20144;-87
2023/09/15 07:41:15;;;;;;;0.30;0.30;;;;;;;;;;5029215;28;20404;-87
2023/09/15 07:43:41;;;;;;;0.30;0.30;;;;;;;;;;5016684;28;20137;-87
2023/09/15 07:46:26;;;;;;;0.20;0.20;;;;;;;;;;5017164;28;20063;-87
2023/09/15 07:48:52;;;;;;;0.30;0.30;;;;;;;;;;5036744;28;20037;-88
2023/09/15 07:51:19;;;;;;;0.30;0.30;;;;;;;;;;5021611;28;20105;-87
2023/09/15 07:53:46;;;;;;;0.20;0.20;;;;;;;;;;5025009;28;20049;-87
2023/09/15 07:56:12;;;;;;;0.20;0.20;;;;;;;;;;5016979;28;20129;-86
2023/09/15 07:58:38;;;;;;;0.22;0.22;;;;;;;;;;5020900;28;20077;-87
2023/09/15 08:01:07;;;;;;;0.20;0.20;;;;;;;;;;5019835;28;20060;-88
2023/09/15 08:03:33;;;;;;;0.13;0.13;;;;;;;;;;5018232;28;20096;-88
2023/09/15 08:05:59;;;;;;;0.20;0.20;;;;;;;;;;5020972;28;20025;-87
2023/09/15 08:08:25;;;;;;;0.30;0.30;;;;;;;;;;5020273;28;20053;-88
2023/09/15 08:10:51;;;;;;;0.20;0.20;;;;;;;;;;5021765;28;20041;-87
2023/09/15 08:13:17;;;;;;;0.17;0.17;;;;;;;;;;5030119;28;20036;-87
2023/09/15 08:15:43;;;;;;;0.20;0.20;;;;;;;;;;5031459;28;20068;-88
2023/09/15 08:18:09;;;;;;;0.17;0.17;;;;;;;;;;5019086;28;20478;-88
2023/09/15 08:20:35;;;;;;;0.45;0.45;;;;;;;;;;5028593;28;20076;-88
2023/09/15 08:23:03;;;;;;;0.20;0.20;;;;;;;;;;5020894;28;20056;-87
2023/09/15 08:25:29;;;;;;;0.13;0.13;;;;;;;;;;5023004;28;20060;-89
2023/09/15 08:27:55;;;;;;;0.20;0.20;;;;;;;;;;5022487;28;20037;-89
2023/09/15 08:30:22;;;;;;;0.00;0.00;;;;;;;;;;5024405;28;20187;-89
2023/09/15 08:32:48;;;;;;;0.28;0.28;;;;;;;;;;5024268;28;20046;-88
2023/09/15 08:35:14;;;;;;;0.22;0.22;;;;;;;;;;5022441;28;20042;-88
2023/09/15 08:37:40;;;;;;;0.30;0.30;;;;;;;;;;5018639;28;20132;-87
2023/09/15 08:40:07;;;;;;;0.20;0.20;;;;;;;;;;5019012;28;20116;-88
2023/09/15 08:42:33;;;;;;;0.68;0.68;;;;;;;;;;5036972;28;20034;-88
2023/09/15 08:44:59;;;;;;;0.20;0.20;;;;;;;;;;5022721;28;20021;-89
2023/09/15 08:47:27;;;;;;;0.20;0.20;;;;;;;;;;5036230;28;20033;-88
2023/09/15 08:49:53;;;;;;;0.20;0.20;;;;;;;;;;5020082;28;20045;-88
2023/09/15 08:52:20;;;;;;;0.20;0.20;;;;;;;;;;5019934;28;20033;-88
2023/09/15 08:54:47;;;;;;;0.15;0.15;;;;;;;;;;5036991;28;20040;-88
2023/09/15 08:57:13;;;;;;;0.10;0.10;;;;;;;;;;5038435;28;20083;-88
2023/09/15 08:59:39;;;;;;;0.10;0.10;;;;;;;;;;5036451;28;20091;-88
2023/09/15 09:02:05;;;;;;;0.10;0.10;;;;;;;;;;5019428;28;20124;-88
2023/09/15 09:04:31;;;;;;;0.10;0.10;;;;;;;;;;5020445;28;20368;-88
2023/09/15 09:06:59;;;;;;;0.20;0.20;;;;;;;;;;5017983;28;20041;-87
2023/09/15 09:09:26;;;;;;;0.10;0.10;;;;;;;;;;5018056;28;20056;-87
2023/09/15 09:11:53;;;;;;;0.28;0.28;;;;;;;;;;5019022;28;20387;-89
2023/09/15 09:14:19;;;;;;;0.30;0.30;;;;;;;;;;5020279;28;20572;-89
2023/09/15 09:16:47;;;;;;;0.20;0.20;;;;;;;;;;5025120;28;20048;-91
2023/09/15 09:19:13;;;;;;;0.10;0.10;;;;;;;;;;5013871;28;20068;-89
2023/09/15 09:21:40;;;;;;;0.10;0.10;;;;;;;;;;5021496;28;20409;-89
2023/09/15 09:24:09;;;;;;;0.20;0.20;;;;;;;;;;5029885;28;20124;-89
2023/09/15 09:26:35;;;;;;;0.10;0.10;;;;;;;;;;5026107;28;20109;-89
2023/09/15 09:29:02;;;;;;;0.10;0.10;;;;;;;;;;5012089;28;20041;-90
2023/09/15 09:31:28;;;;;;;0.10;0.10;;;;;;;;;;5037664;28;20079;-90
2023/09/15 09:33:57;;;;;;;0.10;0.10;;;;;;;;;;5020307;28;20080;-87
2023/09/15 09:36:23;;;;;;;0.20;0.20;;;;;;;;;;5026428;28;20054;-89
2023/09/15 09:38:50;;;;;;;0.30;0.30;;;;;;;;;;5020231;28;20098;-89
2023/09/15 09:41:18;;;;;;;0.10;0.10;;;;;;;;;;5012980;28;20045;-90
2023/09/15 09:43:51;;;;;;;0.20;0.20;;;;;;;;;;5031236;28;20509;-89
2023/09/15 09:46:22;;;;;;;0.10;0.10;;;;;;;;;;5034736;28;20061;-87
2023/09/15 09:48:50;;;;;;;0.20;0.20;;;;;;;;;;5025126;28;20042;-89
2023/09/15 09:51:17;;;;;;;0.17;0.17;;;;;;;;;;5017007;28;20433;-89
2023/09/15 09:53:43;;;;;;;0.00;0.00;;;;;;;;;;5030757;28;20045;-89
2023/09/15 09:56:09;;;;;;;0.20;0.20;;;;;;;;;;5018915;28;20049;-87
2023/09/15 09:58:36;;;;;;;0.10;0.10;;;;;;;;;;5032128;28;20045;-88
2023/09/15 10:01:06;;;;;;;0.10;0.10;;;;;;;;;;5015781;28;20042;-88
2023/09/15 10:03:32;;;;;;;0.17;0.17;;;;;;;;;;5030760;28;20018;-88
2023/09/15 10:05:59;;;;;;;0.10;0.10;;;;;;;;;;5019506;28;20044;-89
2023/09/15 10:08:26;;;;;;;0.10;0.10;;;;;;;;;;5015993;28;20034;-88
2023/09/15 10:10:53;;;;;;;0.20;0.20;;;;;;;;;;5018362;28;20045;-88
2023/09/15 10:13:19;;;;;;;0.28;0.28;;;;;;;;;;5017901;28;20514;-87
2023/09/15 10:15:47;;;;;;;0.20;0.20;;;;;;;;;;5017797;28;20052;-89
2023/09/15 10:18:15;;;;;;;0.15;0.15;;;;;;;;;;5016458;28;20045;-88
2023/09/15 10:20:42;;;;;;;0.20;0.20;;;;;;;;;;5017276;28;20042;-86
2023/09/15 10:23:09;;;;;;;0.10;0.10;;;;;;;;;;5021302;28;20490;-88
2023/09/15 10:25:43;;;;;;;0.10;0.10;;;;;;;;;;5035990;28;20038;-86
2023/09/15 10:28:11;;;;;;;0.20;0.20;;;;;;;;;;5034756;28;20061;-87
2023/09/15 10:30:40;;;;;;;0.10;0.10;;;;;;;;;;5035572;28;20099;-88
2023/09/15 10:33:07;;;;;;;0.10;0.10;;;;;;;;;;5032679;28;20131;-87
2023/09/15 10:35:33;;;;;;;0.20;0.20;;;;;;;;;;5037664;28;20134;-85
2023/09/15 10:38:03;;;;;;;0.15;0.15;;;;;;;;;;5021330;28;20525;-88
2023/09/15 10:40:46;;;;;;;0.13;0.13;;;;;;;;;;5021452;28;20413;-87
2023/09/15 10:43:12;;;;;;;0.30;0.30;;;;;;;;;;5020224;28;20091;-87
2023/09/15 10:45:38;;;;;;;0.17;0.17;;;;;;;;;;5029045;28;20069;-88
2023/09/15 10:48:04;;;;;;;0.20;0.20;;;;;;;;;;5001506;28;20038;-88
2023/09/15 10:50:35;;;;;;;0.10;0.10;;;;;;;;;;5005767;28;20041;-88
2023/09/15 10:53:27;;;;;;;0.10;0.10;;;;;;;;;;5019674;28;20041;-88
2023/09/15 10:55:56;;;;;;;0.20;0.20;;;;;;;;;;5019377;28;20065;-89
2023/09/15 10:58:22;;;;;;;0.10;0.10;;;;;;;;;;5036127;28;20041;-88
2023/09/15 11:00:51;;;;;;;0.20;0.20;;;;;;;;;;5005814;28;20092;-86
2023/09/15 11:03:17;;;;;;;0.05;0.05;;;;;;;;;;5017562;28;20042;-87
2023/09/15 11:05:44;;;;;;;0.00;0.00;;;;;;;;;;5017337;28;20048;-86
2023/09/15 11:08:13;;;;;;;0.20;0.20;;;;;;;;;;5020812;28;20049;-93
2023/09/15 11:10:40;;;;;;;0.08;0.08;;;;;;;;;;5021071;28;20034;-91
2023/09/15 11:13:06;;;;;;;0.20;0.20;;;;;;;;;;5022920;28;20045;-88
2023/09/15 11:15:33;;;;;;;0.10;0.10;;;;;;;;;;5021627;28;20053;-92
2023/09/15 11:18:02;;;;;;;0.20;0.20;;;;;;;;;;5022066;28;20045;-92
2023/09/15 11:20:28;;;;;;;0.10;0.10;;;;;;;;;;5021376;28;20053;-91
2023/09/15 11:22:55;;;;;;;0.10;0.10;;;;;;;;;;5038563;28;20042;-92
2023/09/15 11:25:21;;;;;;;0.20;0.20;;;;;;;;;;5038113;28;20043;-90
2023/09/15 11:27:48;;;;;;;0.10;0.10;;;;;;;;;;5025416;28;20042;-90
2023/09/15 11:30:14;;;;;;;0.20;0.20;;;;;;;;;;5023211;28;20167;-90
2023/09/15 11:32:40;;;;;;;0.10;0.10;;;;;;;;;;5024704;28;20115;-92
2023/09/15 11:35:09;;;;;;;0.20;0.20;;;;;;;;;;5025205;28;20104;-91
2023/09/15 11:37:35;;;;;;;0.10;0.10;;;;;;;;;;5035913;28;20059;-91
2023/09/15 11:40:03;;;;;;;0.20;0.20;;;;;;;;;;5032673;28;20439;-91
2023/09/15 11:42:29;;;;;;;0.10;0.10;;;;;;;;;;5024602;28;20055;-90
2023/09/15 11:44:55;;;;;;;0.10;0.10;;;;;;;;;;5024318;28;20049;-90
2023/09/15 11:47:21;;;;;;;0.20;0.20;;;;;;;;;;5023438;28;20063;-90
2023/09/15 11:49:48;;;;;;;0.00;0.00;;;;;;;;;;5023720;28;20454;-89
2023/09/15 11:52:14;;;;;;;0.17;0.17;;;;;;;;;;5023386;28;20124;-91
2023/09/15 11:54:44;;;;;;;0.10;0.10;;;;;;;;;;5024242;28;20041;-90
2023/09/15 11:57:10;;;;;;;0.13;0.13;;;;;;;;;;5022693;28;20052;-91
2023/09/15 11:59:37;;;;;;;0.10;0.10;;;;;;;;;;5035655;28;20045;-90
2023/09/15 12:02:03;;;;;;;0.10;0.10;;;;;;;;;;5023150;28;20049;-89
2023/09/15 12:04:30;;;;;;;0.08;0.08;;;;;;;;;;5038424;28;20101;-90
2023/09/15 12:06:56;;;;;;;0.20;0.20;;;;;;;;;;5038980;28;20075;-91
2023/09/15 12:09:22;;;;;;;0.20;0.20;;;;;;;;;;5023756;28;20080;-88
2023/09/15 12:11:48;;;;;;;0.10;0.10;;;;;;;;;;5021966;28;20045;-90
2023/09/15 12:14:15;;;;;;;0.15;0.15;;;;;;;;;;5037122;28;20128;-90
2023/09/15 12:16:43;;;;;;;0.00;0.00;;;;;;;;;;5015798;28;20049;-91
2023/09/15 12:19:11;;;;;;;0.15;0.15;;;;;;;;;;5017202;28;20509;-91
2023/09/15 12:21:37;;;;;;;0.20;0.20;;;;;;;;;;5022671;28;20048;-92
2023/09/15 12:24:09;;;;;;;0.20;0.20;;;;;;;;;;5023465;28;20037;-91
2023/09/15 12:26:37;;;;;;;0.20;0.20;;;;;;;;;;5023524;28;20034;-91
2023/09/15 12:29:03;;;;;;;0.20;0.20;;;;;;;;;;5004151;28;20057;-90
2023/09/15 12:31:29;;;;;;;0.08;0.08;;;;;;;;;;5002569;28;20042;-88
2023/09/15 12:33:56;;;;;;;0.10;0.10;;;;;;;;;;5018400;28;20046;-89
2023/09/15 12:36:22;;;;;;;0.10;0.10;;;;;;;;;;5003127;28;20052;-91
2023/09/15 12:38:50;;;;;;;0.10;0.10;;;;;;;;;;5003588;28;20073;-90
2023/09/15 12:41:16;;;;;;;0.20;0.20;;;;;;;;;;5003938;28;20022;-90
2023/09/15 12:43:43;;;;;;;0.10;0.10;;;;;;;;;;5003567;28;20034;-91
2023/09/15 12:46:09;;;;;;;0.10;0.10;;;;;;;;;;5002406;28;20038;-91
2023/09/15 12:48:35;;;;;;;0.10;0.10;;;;;;;;;;5002026;28;20084;-91
2023/09/15 12:51:02;;;;;;;0.20;0.20;;;;;;;;;;5003796;28;20046;-91
2023/09/15 12:53:28;;;;;;;0.20;0.20;;;;;;;;;;5002287;28;20042;-91
2023/09/15 12:55:55;;;;;;;0.13;0.13;;;;;;;;;;5004050;28;20046;-91
2023/09/15 12:58:21;;;;;;;0.10;0.10;;;;;;;;;;5003441;28;20052;-91
2023/09/15 13:00:47;;;;;;;0.05;0.05;;;;;;;;;;5002854;28;20453;-92
2023/09/15 13:03:14;;;;;;;0.10;0.10;;;;;;;;;;5019507;28;20553;-91
2023/09/15 13:05:39;;;;;;;0.20;0.20;;;;;;;;;;5003901;28;20037;-92
2023/09/15 13:08:05;;;;;;;0.10;0.10;;;;;;;;;;5020373;28;20038;-91
2023/09/15 13:10:34;;;;;;;0.15;0.15;;;;;;;;;;5004561;28;20374;-91
2023/09/15 13:13:00;;;;;;;0.13;0.13;;;;;;;;;;5004347;28;20057;-92
2023/09/15 13:15:26;;;;;;;0.15;0.15;;;;;;;;;;5004093;28;20056;-90
2023/09/15 13:17:52;;;;;;;0.00;0.00;;;;;;;;;;5004490;28;20050;-92
2023/09/15 13:20:18;;;;;;;0.10;0.10;;;;;;;;;;5003524;28;20096;-91
2023/09/15 13:22:44;;;;;;;0.05;0.05;;;;;;;;;;5003580;28;20041;-91
2023/09/15 13:25:10;;;;;;;0.20;0.20;;;;;;;;;;5003936;28;20045;-92
2023/09/15 13:27:42;;;;;;;0.20;0.20;;;;;;;;;;5003147;28;20491;-90
2023/09/15 13:30:09;;;;;;;0.10;0.10;;;;;;;;;;5002387;28;20053;-91
2023/09/15 13:32:35;;;;;;;0.10;0.10;;;;;;;;;;5003262;28;20073;-91
2023/09/15 13:35:01;;;;;;;0.10;0.10;;;;;;;;;;5003029;28;20041;-90
2023/09/15 13:37:27;;;;;;;0.15;0.15;;;;;;;;;;5002947;28;20491;-90
2023/09/15 13:39:53;;;;;;;0.10;0.10;;;;;;;;;;5002494;28;20077;-91
2023/09/15 13:42:30;;;;;;;0.20;0.20;;;;;;;;;;5003343;28;20034;-90
2023/09/15 13:44:56;;;;;;;0.00;0.00;;;;;;;;;;5002587;28;20033;-90
2023/09/15 13:47:22;;;;;;;0.10;0.10;;;;;;;;;;5003286;28;20112;-90
2023/09/15 13:49:48;;;;;;;0.10;0.10;;;;;;;;;;5002048;28;20487;-89
2023/09/15 13:52:14;;;;;;;0.10;0.10;;;;;;;;;;5018829;28;20041;-90
2023/09/15 13:54:40;;;;;;;0.10;0.10;;;;;;;;;;5002659;28;20049;-89
2023/09/15 13:57:06;;;;;;;0.10;0.10;;;;;;;;;;5018578;28;20116;-89
2023/09/15 13:59:32;;;;;;;0.10;0.10;;;;;;;;;;5002856;28;20041;-91
2023/09/15 14:01:58;;;;;;;0.10;0.10;;;;;;;;;;5002630;28;20469;-90
2023/09/15 14:04:24;;;;;;;0.10;0.10;;;;;;;;;;5002756;28;20390;-90
2023/09/15 14:06:50;;;;;;;0.00;0.00;;;;;;;;;;5002860;28;20047;-90
2023/09/15 14:09:17;;;;;;;0.08;0.08;;;;;;;;;;5001536;28;20053;-89
2023/09/15 14:11:45;;;;;;;0.10;0.10;;;;;;;;;;5017331;28;20522;-91
2023/09/15 14:14:11;;;;;;;0.10;0.10;;;;;;;;;;5000735;28;20046;-91
2023/09/15 14:16:38;;;;;;;0.10;0.10;;;;;;;;;;5000976;28;20053;-91
2023/09/15 14:19:04;;;;;;;0.10;0.10;;;;;;;;;;5001970;28;20519;-90
2023/09/15 14:21:31;;;;;;;0.08;0.08;;;;;;;;;;5001568;28;20049;-91
2023/09/15 14:23:57;;;;;;;0.08;0.08;;;;;;;;;;5001497;28;20080;-91
2023/09/15 14:26:23;;;;;;;0.10;0.10;;;;;;;;;;5003183;28;20038;-91
2023/09/15 14:28:49;;;;;;;0.17;0.17;;;;;;;;;;5003216;28;20054;-91
2023/09/15 14:31:15;;;;;;;0.10;0.10;;;;;;;;;;5001204;28;20427;-90
2023/09/15 14:33:41;;;;;;;0.10;0.10;;;;;;;;;;5000676;28;20365;-89
2023/09/15 14:36:07;;;;;;;0.10;0.10;;;;;;;;;;5017893;28;20041;-89
2023/09/15 14:38:33;;;;;;;0.10;0.10;;;;;;;;;;5001818;28;20407;-90
2023/09/15 14:40:59;;;;;;;0.20;0.20;;;;;;;;;;5001612;28;20048;-90